createdAt,value
2022-08-22T00:00:35.602Z,16.20
2022-08-22T00:02:45.978Z,20.70
2022-08-22T00:02:49.791Z,18.50
2022-08-22T00:03:01.813Z,20.70
2022-08-22T00:03:12.111Z,17.20
2022-08-22T00:03:12.193Z,22.00
2022-08-22T00:03:22.612Z,16.20
2022-08-22T00:06:08.101Z,16.10
2022-08-22T00:08:48.601Z,16.20
2022-08-22T00:11:25.943Z,16.20
2022-08-22T00:14:05.768Z,16.20
2022-08-22T00:16:44.603Z,16.10
2022-08-22T00:19:23.192Z,16.20
2022-08-22T00:21:58.102Z,16.20
2022-08-22T00:24:32.810Z,16.20
2022-08-22T00:27:05.844Z,16.30
2022-08-22T00:29:38.281Z,16.30
2022-08-22T00:32:14.681Z,16.30
2022-08-22T00:34:50.101Z,16.40
2022-08-22T00:37:24.247Z,16.50
2022-08-22T00:40:00.068Z,16.50
2022-08-22T00:43:01.202Z,16.60
2022-08-22T00:45:54.620Z,16.60
2022-08-22T00:49:02.624Z,16.50
2022-08-22T00:52:07.669Z,16.40
2022-08-22T00:54:57.769Z,16.40
2022-08-22T00:57:42.742Z,16.40
2022-08-22T01:00:17.942Z,16.50
2022-08-22T01:03:24.182Z,16.50
2022-08-22T01:06:12.281Z,16.50
2022-08-22T01:09:06.161Z,16.50
2022-08-22T01:12:14.100Z,16.60
2022-08-22T01:14:49.171Z,16.70
2022-08-22T01:17:44.500Z,16.70
2022-08-22T01:20:58.178Z,16.70
2022-08-22T01:26:55.367Z,16.70
2022-08-22T01:30:03.200Z,16.80
2022-08-22T01:33:21.545Z,16.80
2022-08-22T01:36:13.354Z,16.80
2022-08-22T01:39:17.768Z,16.70
2022-08-22T01:42:20.542Z,16.70
2022-08-22T01:45:08.080Z,16.70
2022-08-22T01:47:41.723Z,16.70
2022-08-22T01:50:20.620Z,16.60
2022-08-22T01:52:54.540Z,16.60
2022-08-22T01:55:33.061Z,16.60
2022-08-22T01:58:05.500Z,16.50
2022-08-22T02:00:51.559Z,16.40
2022-08-22T02:03:27.563Z,16.40
2022-08-22T02:06:04.001Z,16.40
2022-08-22T02:08:45.080Z,16.40
2022-08-22T02:11:33.260Z,16.40
2022-08-22T02:14:14.261Z,16.30
2022-08-22T02:16:45.999Z,16.30
2022-08-22T02:19:38.302Z,16.30
2022-08-22T02:22:20.761Z,16.30
2022-08-22T02:25:00.423Z,16.30
2022-08-22T02:27:38.408Z,16.40
2022-08-22T02:30:11.102Z,16.40
2022-08-22T02:32:53.169Z,16.40
2022-08-22T02:35:31.339Z,16.40
2022-08-22T02:38:21.340Z,16.30
2022-08-22T02:41:06.320Z,16.40
2022-08-22T02:43:43.899Z,16.50
2022-08-22T02:46:24.581Z,16.60
2022-08-22T02:49:01.208Z,16.50
2022-08-22T02:51:37.819Z,16.50
2022-08-22T02:54:17.588Z,16.50
2022-08-22T02:56:54.440Z,16.60
2022-08-22T02:59:33.582Z,16.60
2022-08-22T03:02:35.579Z,16.50
2022-08-22T03:05:19.123Z,16.40
2022-08-22T03:07:55.473Z,16.30
2022-08-22T03:10:29.216Z,16.20
2022-08-22T03:13:07.940Z,16.20
2022-08-22T03:15:48.463Z,16.20
2022-08-22T03:18:26.075Z,16.20
2022-08-22T03:20:59.279Z,16.30
2022-08-22T03:23:38.074Z,16.30
2022-08-22T03:26:14.790Z,16.40
2022-08-22T03:28:52.721Z,16.40
2022-08-22T03:31:31.322Z,16.40
2022-08-22T03:34:22.568Z,16.40
2022-08-22T03:37:03.830Z,16.30
2022-08-22T03:39:54.868Z,16.30
2022-08-22T03:42:54.371Z,16.30
2022-08-22T03:46:18.396Z,16.30
2022-08-22T03:48:55.512Z,16.10
2022-08-22T03:52:02.212Z,15.80
2022-08-22T03:55:01.980Z,15.60
2022-08-22T03:57:56.684Z,15.50
2022-08-22T04:01:04.241Z,15.40
2022-08-22T04:03:56.243Z,15.20
2022-08-22T04:07:05.412Z,15.10
2022-08-22T04:10:22.791Z,15.00
2022-08-22T04:13:11.120Z,15.00
2022-08-22T04:16:13.481Z,14.90
2022-08-22T04:19:12.730Z,14.80
2022-08-22T04:22:12.350Z,14.80
2022-08-22T04:24:52.971Z,14.80
2022-08-22T04:27:27.322Z,14.80
2022-08-22T04:30:03.410Z,14.80
2022-08-22T04:32:37.992Z,14.80
2022-08-22T04:35:12.298Z,14.90
2022-08-22T04:37:48.461Z,14.90
2022-08-22T04:40:23.269Z,15.00
2022-08-22T04:42:58.528Z,15.00
2022-08-22T04:45:33.902Z,15.00
2022-08-22T04:48:11.570Z,15.00
2022-08-22T04:50:47.042Z,15.10
2022-08-22T04:53:37.795Z,15.20
2022-08-22T04:56:17.734Z,15.20
2022-08-22T04:58:50.212Z,15.20
2022-08-22T05:01:21.073Z,15.20
2022-08-22T05:03:58.693Z,15.20
2022-08-22T05:06:30.402Z,15.10
2022-08-22T05:09:04.373Z,15.10
2022-08-22T05:11:34.965Z,15.10
2022-08-22T05:14:07.293Z,15.10
2022-08-22T05:16:40.978Z,15.10
2022-08-22T05:19:16.971Z,15.10
2022-08-22T05:21:50.936Z,15.00
2022-08-22T05:24:23.570Z,15.00
2022-08-22T05:26:58.883Z,15.00
2022-08-22T05:29:31.245Z,15.00
2022-08-22T05:32:03.571Z,15.10
2022-08-22T05:34:39.535Z,15.10
2022-08-22T05:37:12.392Z,15.30
2022-08-22T05:39:47.275Z,15.40
2022-08-22T05:42:29.431Z,15.60
2022-08-22T05:44:58.363Z,15.70
2022-08-22T05:47:35.687Z,15.80
2022-08-22T05:50:08.766Z,15.90
2022-08-22T05:52:45.445Z,16.00
2022-08-22T05:55:29.751Z,16.10
2022-08-22T05:58:21.431Z,16.30
2022-08-22T06:00:55.946Z,16.40
2022-08-22T06:03:31.664Z,16.50
2022-08-22T06:06:10.125Z,16.60
2022-08-22T06:08:44.243Z,16.60
2022-08-22T06:11:18.633Z,16.70
2022-08-22T06:13:56.014Z,16.80
2022-08-22T06:16:35.682Z,17.00
2022-08-22T06:19:19.280Z,17.20
2022-08-22T06:21:52.892Z,17.40
2022-08-22T06:24:22.556Z,17.60
2022-08-22T06:26:53.605Z,17.80
2022-08-22T06:29:35.565Z,17.90
2022-08-22T06:32:10.656Z,18.00
2022-08-22T06:34:43.208Z,18.00
2022-08-22T06:37:20.022Z,18.00
2022-08-22T06:39:53.390Z,18.10
2022-08-22T06:42:26.704Z,18.20
2022-08-22T06:45:03.853Z,18.30
2022-08-22T06:47:37.666Z,18.40
2022-08-22T06:50:13.907Z,18.50
2022-08-22T06:52:54.125Z,18.60
2022-08-22T06:55:26.413Z,18.70
2022-08-22T06:57:58.011Z,18.70
2022-08-22T07:00:28.127Z,18.80
2022-08-22T07:03:00.563Z,18.80
2022-08-22T07:05:36.077Z,18.90
2022-08-22T07:08:10.332Z,19.00
2022-08-22T07:10:43.712Z,19.10
2022-08-22T07:13:16.248Z,19.10
2022-08-22T07:15:45.463Z,19.20
2022-08-22T07:18:20.958Z,19.30
2022-08-22T07:20:54.980Z,19.40
2022-08-22T07:23:33.992Z,19.60
2022-08-22T07:26:18.842Z,19.70
2022-08-22T07:28:58.741Z,19.90
2022-08-22T07:31:35.497Z,20.00
2022-08-22T07:34:18.197Z,20.00
2022-08-22T07:36:51.306Z,20.10
2022-08-22T07:39:26.985Z,20.30
2022-08-22T07:42:12.649Z,20.50
2022-08-22T07:45:02.388Z,20.60
2022-08-22T07:47:40.542Z,20.70
2022-08-22T07:50:13.181Z,20.90
2022-08-22T07:52:43.895Z,21.20
2022-08-22T07:55:19.661Z,21.40
2022-08-22T07:57:54.807Z,21.70
2022-08-22T08:00:25.451Z,22.00
2022-08-22T08:02:58.465Z,22.50
2022-08-22T08:05:30.816Z,22.60
2022-08-22T08:08:01.352Z,22.80
2022-08-22T08:10:35.603Z,22.80
2022-08-22T08:13:09.247Z,22.90
2022-08-22T08:15:39.915Z,23.30
2022-08-22T08:18:19.476Z,24.40
2022-08-22T08:20:53.393Z,25.90
2022-08-22T08:23:23.791Z,27.10
2022-08-22T08:26:04.713Z,27.60
2022-08-22T08:28:36.492Z,28.40
2022-08-22T08:31:15.764Z,28.90
2022-08-22T08:33:48.629Z,30.10
2022-08-22T08:36:29.322Z,31.10
2022-08-22T08:39:03.793Z,31.70
2022-08-22T08:41:52.556Z,32.10
2022-08-22T08:44:35.955Z,32.00
2022-08-22T08:47:27.499Z,31.00
2022-08-22T08:50:29.272Z,29.90
2022-08-22T08:53:33.233Z,28.70
2022-08-22T08:56:08.773Z,27.90
2022-08-22T08:58:54.079Z,27.10
2022-08-22T09:01:41.698Z,26.80
2022-08-22T09:04:50.164Z,26.50
2022-08-22T09:07:44.227Z,26.40
2022-08-22T09:10:43.519Z,26.50
2022-08-22T09:13:40.730Z,27.60
2022-08-22T09:16:45.622Z,28.10
2022-08-22T09:19:53.693Z,28.30
2022-08-22T09:23:01.693Z,28.00
2022-08-22T09:25:40.557Z,27.50
2022-08-22T09:28:18.197Z,28.70
2022-08-22T09:31:16.842Z,28.80
2022-08-22T09:34:06.102Z,28.30
2022-08-22T09:36:46.035Z,27.90
2022-08-22T09:39:19.625Z,29.10
2022-08-22T09:41:59.223Z,30.00
2022-08-22T09:44:40.003Z,29.60
2022-08-22T09:47:24.283Z,29.40
2022-08-22T09:50:05.128Z,29.80
2022-08-22T09:52:54.885Z,30.50
2022-08-22T09:55:44.188Z,32.60
2022-08-22T09:58:21.684Z,34.00
2022-08-22T10:00:56.638Z,34.70
2022-08-22T10:03:53.828Z,35.80
2022-08-22T10:06:31.831Z,36.50
2022-08-22T10:09:08.985Z,36.50
2022-08-22T10:11:43.476Z,34.80
2022-08-22T10:14:22.058Z,34.80
2022-08-22T10:17:08.886Z,35.60
2022-08-22T10:19:42.824Z,36.40
2022-08-22T10:22:38.330Z,37.20
2022-08-22T10:25:33.156Z,38.30
2022-08-22T10:28:17.469Z,37.90
2022-08-22T10:30:57.402Z,37.60
2022-08-22T10:33:31.147Z,37.60
2022-08-22T10:36:04.785Z,38.20
2022-08-22T10:38:46.239Z,38.50
2022-08-22T10:41:28.826Z,38.70
2022-08-22T10:44:06.544Z,38.80
2022-08-22T10:46:42.262Z,39.30
2022-08-22T10:49:22.562Z,39.20
2022-08-22T10:52:13.643Z,38.60
2022-08-22T10:54:49.767Z,37.80
2022-08-22T10:57:52.650Z,37.30
2022-08-22T11:00:38.791Z,35.80
2022-08-22T11:03:23.416Z,34.00
2022-08-22T11:05:56.511Z,33.90
2022-08-22T11:08:58.556Z,35.20
2022-08-22T11:11:40.967Z,35.10
2022-08-22T11:14:51.263Z,33.90
2022-08-22T11:17:39.753Z,32.50
2022-08-22T11:20:21.317Z,31.60
2022-08-22T11:23:08.224Z,30.80
2022-08-22T11:25:53.869Z,30.10
2022-08-22T11:28:41.573Z,29.70
2022-08-22T11:31:21.668Z,29.50
2022-08-22T11:33:56.795Z,29.30
2022-08-22T11:36:37.090Z,29.50
2022-08-22T11:39:25.234Z,29.50
2022-08-22T11:42:05.985Z,29.70
2022-08-22T11:44:50.677Z,30.50
2022-08-22T11:47:28.169Z,31.00
2022-08-22T11:50:01.485Z,32.80
2022-08-22T11:52:58.746Z,33.50
2022-08-22T11:55:39.505Z,34.40
2022-08-22T11:58:28.930Z,36.00
2022-08-22T12:01:03.835Z,37.10
2022-08-22T12:03:58.195Z,37.80
2022-08-22T12:06:56.714Z,38.70
2022-08-22T12:09:38.936Z,38.70
2022-08-22T12:12:23.513Z,37.60
2022-08-22T12:15:05.483Z,37.40
2022-08-22T12:18:13.501Z,38.00
2022-08-22T12:21:24.075Z,38.90
2022-08-22T12:24:21.099Z,39.60
2022-08-22T12:27:07.898Z,40.40
2022-08-22T12:29:45.556Z,40.60
2022-08-22T12:32:50.456Z,40.60
2022-08-22T12:35:34.686Z,39.50
2022-08-22T12:38:28.503Z,39.50
2022-08-22T12:41:28.506Z,38.90
2022-08-22T12:44:21.415Z,37.70
2022-08-22T12:47:09.439Z,37.20
2022-08-22T12:49:53.695Z,37.60
2022-08-22T12:52:39.943Z,37.50
2022-08-22T12:55:35.053Z,37.70
2022-08-22T12:58:11.811Z,36.50
2022-08-22T13:00:45.216Z,35.20
2022-08-22T13:03:24.778Z,34.10
2022-08-22T13:05:57.263Z,33.10
2022-08-22T13:08:32.493Z,33.00
2022-08-22T13:11:02.694Z,33.00
2022-08-22T13:13:38.867Z,33.20
2022-08-22T13:16:11.971Z,33.30
2022-08-22T13:18:53.613Z,33.30
2022-08-22T13:21:31.682Z,33.60
2022-08-22T13:24:10.574Z,34.00
2022-08-22T13:26:49.096Z,34.30
2022-08-22T13:29:26.098Z,33.90
2022-08-22T13:32:02.098Z,33.20
2022-08-22T13:34:43.934Z,32.50
2022-08-22T13:37:18.003Z,32.10
2022-08-22T13:39:56.156Z,32.00
2022-08-22T13:42:30.462Z,31.90
2022-08-22T13:45:05.333Z,31.60
2022-08-22T13:47:39.519Z,31.20
2022-08-22T13:50:14.894Z,30.90
2022-08-22T13:52:52.453Z,30.60
2022-08-22T13:55:30.443Z,30.30
2022-08-22T13:58:11.452Z,30.20
2022-08-22T14:01:16.224Z,30.20
2022-08-22T14:03:51.145Z,30.40
2022-08-22T14:06:37.912Z,30.80
2022-08-22T14:09:31.296Z,31.20
2022-08-22T14:12:15.392Z,31.40
2022-08-22T14:14:46.195Z,31.40
2022-08-22T14:17:21.646Z,31.50
2022-08-22T14:19:59.577Z,31.70
2022-08-22T14:22:34.764Z,31.50
2022-08-22T14:25:11.624Z,31.10
2022-08-22T14:27:47.674Z,30.80
2022-08-22T14:30:21.747Z,30.60
2022-08-22T14:32:55.727Z,30.30
2022-08-22T14:35:37.529Z,30.20
2022-08-22T14:38:27.235Z,29.80
2022-08-22T14:41:06.170Z,29.50
2022-08-22T14:43:50.697Z,29.10
2022-08-22T14:46:26.636Z,28.80
2022-08-22T14:49:28.936Z,28.50
2022-08-22T14:52:10.264Z,28.50
2022-08-22T14:54:48.925Z,28.50
2022-08-22T14:57:22.678Z,28.50
2022-08-22T14:59:54.155Z,28.20
2022-08-22T15:02:30.152Z,28.30
2022-08-22T15:05:05.476Z,28.40
2022-08-22T15:07:37.555Z,28.40
2022-08-22T15:10:11.896Z,28.30
2022-08-22T15:12:49.885Z,28.20
2022-08-22T15:15:41.281Z,27.90
2022-08-22T15:18:35.953Z,27.70
2022-08-22T15:21:10.046Z,27.30
2022-08-22T15:23:45.340Z,27.10
2022-08-22T15:26:24.437Z,26.90
2022-08-22T15:29:19.142Z,26.70
2022-08-22T15:31:52.815Z,26.80
2022-08-22T15:34:27.424Z,27.10
2022-08-22T15:37:28.097Z,27.50
2022-08-22T15:40:12.664Z,28.00
2022-08-22T15:42:44.662Z,28.50
2022-08-22T15:45:34.043Z,28.90
2022-08-22T15:48:09.142Z,29.20
2022-08-22T15:50:41.932Z,29.20
2022-08-22T15:53:21.671Z,29.20
2022-08-22T15:56:28.395Z,29.30
2022-08-22T15:59:29.339Z,29.10
2022-08-22T16:02:04.877Z,28.90
2022-08-22T16:04:47.748Z,28.90
2022-08-22T16:07:37.277Z,28.90
2022-08-22T16:10:11.793Z,28.50
2022-08-22T16:12:46.165Z,28.30
2022-08-22T16:15:56.575Z,28.10
2022-08-22T16:19:11.735Z,27.70
2022-08-22T16:22:17.307Z,27.20
2022-08-22T16:25:10.986Z,26.90
2022-08-22T16:27:58.953Z,26.50
2022-08-22T16:30:39.547Z,26.50
2022-08-22T16:33:18.206Z,26.30
2022-08-22T16:36:24.986Z,26.20
2022-08-22T16:38:56.965Z,26.10
2022-08-22T16:41:37.191Z,26.10
2022-08-22T16:44:35.404Z,26.00
2022-08-22T16:47:17.504Z,25.80
2022-08-22T16:50:03.014Z,25.80
2022-08-22T16:53:03.533Z,25.70
2022-08-22T16:55:59.192Z,25.70
2022-08-22T16:59:03.357Z,25.60
2022-08-22T17:02:07.524Z,25.50
2022-08-22T17:04:39.654Z,25.50
2022-08-22T17:07:58.077Z,25.40
2022-08-22T17:10:46.050Z,25.40
2022-08-22T17:13:44.932Z,25.30
2022-08-22T17:16:38.484Z,25.20
2022-08-22T17:19:30.190Z,25.20
2022-08-22T17:22:03.401Z,25.20
2022-08-22T17:24:40.464Z,25.20
2022-08-22T17:27:18.632Z,25.10
2022-08-22T17:30:01.436Z,25.10
2022-08-22T17:32:39.664Z,25.00
2022-08-22T17:35:20.835Z,24.90
2022-08-22T17:37:58.400Z,24.70
2022-08-22T17:40:38.495Z,24.60
2022-08-22T17:43:27.860Z,24.50
2022-08-22T17:46:24.244Z,24.40
2022-08-22T17:49:03.102Z,24.20
2022-08-22T17:51:37.125Z,24.20
2022-08-22T17:54:14.917Z,24.20
2022-08-22T17:56:52.439Z,24.10
2022-08-22T17:59:38.462Z,24.00
2022-08-22T18:02:16.540Z,23.90
2022-08-22T18:04:53.666Z,23.80
2022-08-22T18:07:42.526Z,23.70
2022-08-22T18:10:30.127Z,23.60
2022-08-22T18:13:07.295Z,23.50
2022-08-22T18:15:44.666Z,23.40
2022-08-22T18:18:28.163Z,23.30
2022-08-22T18:21:06.338Z,23.20
2022-08-22T18:23:40.830Z,23.10
2022-08-22T18:26:23.969Z,23.00
2022-08-22T18:28:54.705Z,22.90
2022-08-22T18:31:38.156Z,22.80
2022-08-22T18:34:17.440Z,22.70
2022-08-22T18:36:56.096Z,22.60
2022-08-22T18:39:30.163Z,22.60
2022-08-22T18:42:07.208Z,22.50
2022-08-22T18:44:40.216Z,22.40
2022-08-22T18:47:20.340Z,22.40
2022-08-22T18:49:54.953Z,22.30
2022-08-22T18:52:40.124Z,22.10
2022-08-22T18:55:27.384Z,22.00
2022-08-22T18:58:26.736Z,21.90
2022-08-22T19:01:44.524Z,21.80
2022-08-22T19:04:40.046Z,21.70
2022-08-22T19:07:34.694Z,21.70
2022-08-22T19:10:32.846Z,21.60
2022-08-22T19:13:24.443Z,21.60
2022-08-22T19:16:06.827Z,21.50
2022-08-22T19:18:43.140Z,21.50
2022-08-22T19:21:46.278Z,21.40
2022-08-22T19:24:57.406Z,21.40
2022-08-22T19:27:31.555Z,21.30
2022-08-22T19:30:07.815Z,21.30
2022-08-22T19:33:01.966Z,21.30
2022-08-22T19:35:42.063Z,21.30
2022-08-22T19:38:12.531Z,21.30
2022-08-22T19:40:58.414Z,21.20
2022-08-22T19:43:38.225Z,21.20
2022-08-22T19:46:11.227Z,21.20
2022-08-22T19:48:48.941Z,21.20
2022-08-22T19:51:29.259Z,21.20
2022-08-22T19:54:20.218Z,21.20
2022-08-22T19:57:03.671Z,21.10
2022-08-22T19:59:50.528Z,21.10
2022-08-22T20:02:32.693Z,21.00
2022-08-22T20:05:31.383Z,20.90
2022-08-22T20:08:27.199Z,20.90
2022-08-22T20:11:10.062Z,20.80
2022-08-22T20:13:39.600Z,20.80
2022-08-22T20:16:21.416Z,20.70
2022-08-22T20:19:14.632Z,20.60
2022-08-22T20:21:58.143Z,20.50
2022-08-22T20:24:36.551Z,20.40
2022-08-22T20:27:15.510Z,20.30
2022-08-22T20:29:51.395Z,20.20
2022-08-22T20:32:24.355Z,20.10
2022-08-22T20:34:57.139Z,20.00
2022-08-22T20:38:02.841Z,19.90
2022-08-22T20:40:55.543Z,19.90
2022-08-22T20:43:29.700Z,19.80
2022-08-22T20:46:12.488Z,19.90
2022-08-22T20:48:46.277Z,19.90
2022-08-22T20:51:18.611Z,19.90
2022-08-22T20:53:53.995Z,19.80
2022-08-22T20:56:37.701Z,19.70
2022-08-22T20:59:22.207Z,19.80
2022-08-22T21:01:55.769Z,19.60
2022-08-22T21:04:28.701Z,19.70
2022-08-22T21:07:01.989Z,19.70
2022-08-22T21:09:48.428Z,19.60
2022-08-22T21:12:17.165Z,19.60
2022-08-22T21:14:47.379Z,19.60
2022-08-22T21:17:24.935Z,19.50
2022-08-22T21:19:57.698Z,19.50
2022-08-22T21:22:30.040Z,19.40
2022-08-22T21:25:02.040Z,19.30
2022-08-22T21:27:32.624Z,19.30
2022-08-22T21:30:03.663Z,19.30
2022-08-22T21:32:36.449Z,19.20
2022-08-22T21:35:20.802Z,19.20
2022-08-22T21:37:49.546Z,19.30
2022-08-22T21:40:20.940Z,19.40
2022-08-22T21:43:02.903Z,19.40
2022-08-22T21:45:35.856Z,19.40
2022-08-22T21:48:05.102Z,19.50
2022-08-22T21:50:38.460Z,19.70
2022-08-22T21:53:11.851Z,19.80
2022-08-22T21:55:44.639Z,19.80
2022-08-22T21:58:36.606Z,19.80
2022-08-22T22:01:31.462Z,19.80
2022-08-22T22:04:01.173Z,19.80
2022-08-22T22:06:29.845Z,19.90
2022-08-22T22:08:58.695Z,19.90
2022-08-22T22:11:27.463Z,19.90
2022-08-22T22:13:56.326Z,19.90
2022-08-22T22:16:28.470Z,19.90
2022-08-22T22:18:58.475Z,19.90
2022-08-22T22:21:27.208Z,19.80
2022-08-22T22:23:58.720Z,19.90
2022-08-22T22:26:29.454Z,19.90
2022-08-22T22:28:59.413Z,19.90
2022-08-22T22:31:28.401Z,19.90
2022-08-22T22:33:58.473Z,19.90
2022-08-22T22:36:29.157Z,19.90
2022-08-22T22:38:57.938Z,19.90
2022-08-22T22:41:26.583Z,19.90
2022-08-22T22:43:55.770Z,19.90
2022-08-22T22:46:27.141Z,19.80
2022-08-22T22:48:58.305Z,19.80
2022-08-22T22:51:27.173Z,19.70
2022-08-22T22:53:57.565Z,19.70
2022-08-22T22:56:27.165Z,19.70
2022-08-22T22:58:59.117Z,19.60
2022-08-22T23:01:32.400Z,19.60
2022-08-22T23:04:05.990Z,19.50
2022-08-22T23:06:35.824Z,19.50
2022-08-22T23:09:04.674Z,19.40
2022-08-22T23:11:33.382Z,19.40
2022-08-22T23:14:03.404Z,19.40
2022-08-22T23:16:37.178Z,19.30
2022-08-22T23:19:11.266Z,19.30
2022-08-22T23:21:40.674Z,19.30
2022-08-22T23:24:10.103Z,19.30
2022-08-22T23:26:39.090Z,19.20
2022-08-22T23:29:08.504Z,19.20
2022-08-22T23:31:39.879Z,19.20
2022-08-22T23:34:12.607Z,19.20
2022-08-22T23:36:42.813Z,19.20
2022-08-22T23:39:12.383Z,19.20
2022-08-22T23:41:42.165Z,19.20
2022-08-22T23:44:13.703Z,19.10
2022-08-22T23:46:43.463Z,19.20
2022-08-22T23:49:14.565Z,19.20
2022-08-22T23:51:44.205Z,19.20
2022-08-22T23:54:13.336Z,19.20
2022-08-22T23:56:43.762Z,19.20
2022-08-22T23:59:16.546Z,19.20
